Gemsa, Egypt
Current Conditions -  °F | °C
As of 6:00 PM on Friday 24 Oct 2014 (Local Time) from HEGN Reporting Station
Clear Clear  
Wind Chill: 27°   Ceiling: Unl
Heat Index: 27°   Visibility: 6mi
Dew Point: 15°   Wind: 6mph
Humidity: 48%   Direction: 340°NNW
Pressure: 29.91"   Gusts: NA
Location:  27.63°N, 33.58°E
Report Text: HEGN 241600Z 34005KT CAVOK 27/15 Q1013 NOSIG
Loading
Personal Weather Stations






























Interactive Weather Map
Tropical Storm Tracking
New forecast layout! Learn more

10-Day Weather Forecast

Advertisements
Track Severe Weather on mobile